Hoppa till innehåll

METAR väder och rapporter - ESSA

Nedan listas information från vald flygplats. Andra METARs finns längre ned på sidan. Kontakta oss om någon saknas eller skriv in egen ICAO-kod.

Coded METAR: 2022/06/26 08:20 ESSA 260820Z 13005KT 090V180 CAVOK 25/13 Q1019 NOSIG

Weather Report @ ESSA

Issued: 26th Jun 2022 at 10:20 CEST

Wind: light breeze from the Southeast (130 degrees) at 5 knots (6 mph, 9 kph, 3 mps, Force 2)
Wind: direction varying between from the East (090 degrees) and from the South (180 degrees)
Weather: good visibility and no low cloud (ceiling and visibility OK)
Temperature: 77F / 25C
Dewpoint: 55F / 13C
Humidity: 47%
Pressure: 1019 hPa
Weather: no significant change expected

Coded TAF: 2022/06/26 09:21 TAF TAF ESSA 260830Z 2609/2709 16008KT CAVOK

Weather Forecast @ ESSA

Issued: 26th Jun 2022 at 11:21 CEST

Valid : 26th Jun 11:00 until 27th Jun 11:00 CEST

11:00 CEST
Wind: gentle breeze from South-Southeast (160 degrees) at 8 knots (9 mph, 15 kph, 4 mps, Force 3)
Weather: good visibility and no low cloud (ceiling and visibility OK)

Internet delivery of weather data is not secure or reliable enough for operational purposes.

NEVER RELY ON THE OUTPUT OF THIS SCRIPT TO MAKE DECISIONS ABOUT ANYTHING IN WHICH THE WEATHER FORECAST AND ITS INTERPRETATION COULD BE AN ISSUE OF SAFETY.

Andra intressanta METARs

Klicka på önskad rubrik nedan för att visa nuvarande väder för den platsen.

Avstånd från stationen: NO 27kmESGG - Göteborg (Landvetter)
Uppdaterad: 2022-06-26 10:20
 Vind från varierande
Vind: varierande 2 km/h
Temperatur: 20°C
Daggpunkt: 16°C
Luftfuktighet: 78%
Barometer: 1016 hPa
Moln: Delvis molnigt
Sikt: 10 km
Molninformation: Delvis molnigt 914 m
2022/06/26 08:20 ESGG 260820Z VRB01KT 9999 SCT030CB 20/16 Q1016
Delvis molnigt
Delvis molnigt
  Visa detaljer för Göteborg (Landvetter)
Avstånd från stationen: N 28kmESGP - Göteborg (Säve)
Uppdaterad: 2022-06-26 10:20
 Vind från calm
Vind: Vindstilla
Temperatur: 18°C
Daggpunkt: 17°C
Luftfuktighet: 94%
Barometer: 1015 hPa
Summering: Skurar i närheten
Moln: Övervägande molnigt
Sikt: 10 km
Molninformation: Delvis molnigt 640 m
Övervägande molnigt 2073 m
2022/06/26 08:20 ESGP 260820Z 00000KT 9999 VCSH SCT021CB BKN068 18/17 Q1015
Nearby showers, Övervägande molnigt
Nearby showers
Övervägande molnigt
  Visa detaljer för Göteborg (Säve)
Avstånd från stationen: NO 419kmESSA - Stockholm (Arlanda)
Uppdaterad: 2022-06-26 10:20
 Vind från SO
Vind: SO 9 km/h
Temperatur: 25°C
Daggpunkt: 13°C
Luftfuktighet: 47%
Barometer: 1019 hPa
Summering: Klart
Sikt: mer än 10 km
2022/06/26 08:20 ESSA 260820Z 13005KT 090V180 CAVOK 25/13 Q1019 NOSIG
Klart
Klart
  Visa detaljer för Stockholm (Arlanda)
Avstånd från stationen: ONO 404kmESSB - Stockholm (Bromma)
Uppdaterad: 2022-06-26 10:20
 Vind från O
Vind: O 7 km/h
Temperatur: 27°C
Värmeindex: 27°C
Daggpunkt: 13°C
Luftfuktighet: 42%
Barometer: 1019 hPa
Moln: Klart
Sikt: 10 km
2022/06/26 08:20 ESSB 260820Z AUTO 08004KT 360V140 9999 NCD 27/13 Q1019
Klart
Klart
  Visa detaljer för Stockholm (Bromma)
Avstånd från stationen: ONO 323kmESKN - Stockholm (Skavsta)
Uppdaterad: 2022-06-26 10:20
 Vind från OSO
Vind: OSO 11 km/h
Temperatur: 26°C
Daggpunkt: 14°C
Luftfuktighet: 48%
Barometer: 1019 hPa
Summering: Klart
Sikt: mer än 10 km
2022/06/26 08:20 ESKN 260820Z 12006KT 070V150 CAVOK 26/14 Q1019
Klart
Klart
  Visa detaljer för Stockholm (Skavsta)
Avstånd från stationen: SSO 238kmESMS - Malmö flygplats (Sturup)
Uppdaterad: 2022-06-26 10:20
 Vind från SO
Vind: SO 15 km/h
Temperatur: 24°C
Daggpunkt: 18°C
Luftfuktighet: 69%
Barometer: 1015 hPa
Summering: Klart
Sikt: mer än 10 km
2022/06/26 08:20 ESMS 260820Z 14008KT 110V170 CAVOK 24/18 Q1015
Klart
Klart
  Visa detaljer för Malmö flygplats (Sturup)
Avstånd från stationen: O 382kmESSV - Visby flygplats
Uppdaterad: 2022-06-26 10:20
 Vind från SO
Vind: SO 17 km/h
Temperatur: 27°C
Värmeindex: 28°C
Daggpunkt: 16°C
Luftfuktighet: 51%
Barometer: 1019 hPa
Summering: Klart
Sikt: mer än 10 km
2022/06/26 08:20 ESSV 260820Z 13009KT 090V160 CAVOK 27/16 Q1019
Klart
Klart
  Visa detaljer för Visby flygplats
Avstånd från stationen: NNO 92kmESGT - Trollhättan
Uppdaterad: 2022-06-26 10:20
 Vind från NV
Vind: NV 9 km/h
Temperatur: 23°C
Daggpunkt: 17°C
Luftfuktighet: 69%
Barometer: 1016 hPa
Moln: Övervägande molnigt
Sikt: 10 km
Molninformation: Övervägande molnigt 2682 m
Övervägande molnigt 3353 m
2022/06/26 08:20 ESGT 260820Z AUTO 31005KT 280V010 9999 BKN088/// BKN110/// 23/17 Q1016
Övervägande molnigt
Övervägande molnigt
  Visa detaljer för Trollhättan
Avstånd från stationen: ONO 129kmESGJ - Jönköpings flygplats
Uppdaterad: 2022-06-26 10:20
 Vind från O
Vind: O 11 km/h
Temperatur: 26°C
Daggpunkt: 16°C
Luftfuktighet: 54%
Barometer: 1017 hPa
Moln: Klart
Sikt: 10 km
2022/06/26 08:20 ESGJ 260820Z AUTO 08006KT 050V120 9999 NCD 26/16 Q1017
Klart
Klart
  Visa detaljer för Jönköpings flygplats
Avstånd från stationen: NNO 229kmESOK - Karlstad
Uppdaterad: 2022-06-26 10:20
 Vind från S
Vind: S 11 km/h
Temperatur: 25°C
Daggpunkt: 11°C
Luftfuktighet: 42%
Barometer: 1017 hPa
Moln: Några få moln
Sikt: 10 km
Molninformation: Några få moln 2652 m
2022/06/26 08:20 ESOK 260820Z AUTO 18006KT 140V220 9999 FEW087/// 25/11 Q1017
Några få moln
Några få moln
  Visa detaljer för Karlstad
Avstånd från stationen: N 643kmESNZ - Östersund (Frösön)
Uppdaterad: 2022-06-26 10:20
 Vind från S
Vind: S 9 km/h
Temperatur: 25°C
Daggpunkt: 14°C
Luftfuktighet: 51%
Barometer: 1018 hPa
Summering: Klart
Sikt: mer än 10 km
2022/06/26 08:20 ESNZ 260820Z 19005KT CAVOK 25/14 Q1018
Klart
Klart
  Visa detaljer för Östersund (Frösön)
Avstånd från stationen: SSO 216kmEKCH - Köpenhamn (Kastrup)
Uppdaterad: 2022-06-26 10:20
 Vind från SO
Vind: SO 15 km/h
Temperatur: 23°C
Daggpunkt: 17°C
Luftfuktighet: 69%
Barometer: 1015 hPa
Moln: Övervägande molnigt
Sikt: 10 km
Molninformation: Övervägande molnigt 3353 m
2022/06/26 08:20 EKCH 260820Z AUTO 14008KT 9999 BKN110/// 23/17 Q1015 NOSIG
Övervägande molnigt
Övervägande molnigt
  Visa detaljer för Köpenhamn (Kastrup)
Avstånd från stationen: SV 263kmEKBI - Billund Airport
Uppdaterad: 2022-06-26 10:20
 Vind från SO
Vind: SO 19 km/h
Temperatur: 24°C
Daggpunkt: 18°C
Luftfuktighet: 69%
Barometer: 1013 hPa
Moln: Några få moln
Sikt: 10 km
Molninformation: Några få moln 2743 m
2022/06/26 08:20 EKBI 260820Z AUTO 13010KT 090V160 9999 FEW090/// 24/18 Q1013
Några få moln
Några få moln
  Visa detaljer för Billund Airport
Avstånd från stationen: N 302kmENGM - Oslo (Gardermoen)
Uppdaterad: 2022-06-26 10:20
 Vind från O
Vind: O 9 km/h
Temperatur: 21°C
Daggpunkt: 16°C
Luftfuktighet: 73%
Barometer: 1017 hPa
Moln: Övervägande molnigt
Sikt: 10 km
Molninformation: Delvis molnigt 1372 m
Övervägande molnigt 2225 m
2022/06/26 08:20 ENGM 260820Z 09005KT 050V120 9999 SCT045 BKN073 21/16 Q1017 NOSIG
Övervägande molnigt
Övervägande molnigt
  Visa detaljer för Oslo (Gardermoen)
Avstånd från stationen: NO 540kmEFMA - Mariehamn / Åland
Uppdaterad: 2022-06-26 10:20
 Vind från OSO
Vind: OSO 11 km/h
Temperatur: 26°C
Daggpunkt: 15°C
Luftfuktighet: 51%
Barometer: 1020 hPa
Summering: Klart
Sikt: mer än 10 km
2022/06/26 08:20 EFMA 260820Z AUTO 12006KT 090V170 CAVOK 26/15 Q1020
Klart
Klart
  Visa detaljer för Mariehamn / Åland
Avstånd från stationen: S 558kmEDDT - Berlin (Tegel), Germany
Uppdaterad: 2020-11-09 07:50
Ej aktuell
 Vind från O
Vind: O 11 km/h
Temperatur: 6°C
Vindavkylning: 4°C
Daggpunkt: 5°C
Luftfuktighet: 93%
Barometer: 1027 hPa
Summering: Dimmigt
Moln: Genommulet
Sikt: 3 km
Molninformation: Genommulet 91 m
2020/11/09 06:50 EDDT 090650Z 09006KT 050V120 3000 BR OVC003 06/05 Q1027
Dimmigt, Genommulet
Dimmigt
Genommulet
  Visa detaljer för Berlin (Tegel), Germany
Avstånd från stationen: SV 737kmEHAM - Amsterdam (Schiphol)
Uppdaterad: 2022-06-26 10:25
 Vind från SV
Vind: SV 13 km/h
Temperatur: 18°C
Daggpunkt: 13°C
Luftfuktighet: 73%
Barometer: 1015 hPa
Moln: Några få moln
Sikt: 10 km
Molninformation: Några få moln 518 m
2022/06/26 08:25 EHAM 260825Z 22007KT 170V260 9999 FEW017 18/13 Q1015 NOSIG
Några få moln
Några få moln
  Visa detaljer för Amsterdam (Schiphol)
Avstånd från stationen: ONO 808kmEFHK - Helsingfors (Vantaa)
Uppdaterad: 2022-06-26 10:20
 Vind från varierande
Vind: varierande 6 km/h
Temperatur: 27°C
Värmeindex: 27°C
Daggpunkt: 15°C
Luftfuktighet: 48%
Barometer: 1022 hPa
Summering: Klart
Sikt: mer än 10 km
2022/06/26 08:20 EFHK 260820Z VRB03KT CAVOK 27/15 Q1022 NOSIG
Klart
Klart
  Visa detaljer för Helsingfors (Vantaa)
Avstånd från stationen: SSV 537kmEDDW - Bremen
Uppdaterad: 2022-06-26 10:20
 Vind från V
Vind: V 13 km/h
Temperatur: 23°C
Daggpunkt: 16°C
Luftfuktighet: 65%
Barometer: 1014 hPa
Moln: Några få moln
Sikt: 10 km
Molninformation: Några få moln 671 m
2022/06/26 08:20 EDDW 260820Z AUTO 27007KT 220V300 9999 FEW022 23/16 Q1014 NOSIG
Några få moln
Några få moln
  Visa detaljer för Bremen
Avstånd från stationen: SSV 861kmEDDF - Frankfurt am Main
Uppdaterad: 2022-06-26 10:20
 Vind från SV
Vind: SV 9 km/h
Temperatur: 24°C
Daggpunkt: 14°C
Luftfuktighet: 54%
Barometer: 1015 hPa
Moln: Några få moln
Sikt: 10 km
Molninformation: Några få moln 1158 m
2022/06/26 08:20 EDDF 260820Z 23005KT 150V310 9999 FEW038 24/14 Q1015 NOSIG
Några få moln
Några få moln
  Visa detaljer för Frankfurt am Main
Avstånd från stationen: SV 880kmEBBR - Bryssel international
Uppdaterad: 2022-06-26 10:20
 Vind från S
Vind: S 9 km/h
Temperatur: 16°C
Daggpunkt: 13°C
Luftfuktighet: 83%
Barometer: 1016 hPa
Moln: Några få moln
Sikt: 10 km
Molninformation: Några få moln 366 m
2022/06/26 08:20 EBBR 260820Z 19005KT 160V220 9999 FEW012 16/13 Q1016 NOSIG
Några få moln
Några få moln
  Visa detaljer för Bryssel international
Avstånd från stationen: SV 738kmEHAM - Amsterdam (Schiphol)
Uppdaterad: 2022-06-26 10:25
 Vind från SV
Vind: SV 13 km/h
Temperatur: 18°C
Daggpunkt: 13°C
Luftfuktighet: 73%
Barometer: 1015 hPa
Moln: Några få moln
Sikt: 10 km
Molninformation: Några få moln 518 m
2022/06/26 08:25 EHAM 260825Z 22007KT 170V260 9999 FEW017 18/13 Q1015 NOSIG
Några få moln
Några få moln
  Visa detaljer för Amsterdam (Schiphol)
Avstånd från stationen: SV 1044kmEGLL - London (Heathrow)
Uppdaterad: 2022-06-26 10:20
 Vind från SSV
Vind: SSV 24 km/h
Temperatur: 18°C
Daggpunkt: 8°C
Luftfuktighet: 52%
Barometer: 1012 hPa
Moln: Övervägande molnigt
Sikt: 10 km
Molninformation: Övervägande molnigt 1067 m
2022/06/26 08:20 EGLL 260820Z AUTO 21013KT 9999 BKN035 18/08 Q1012 NOSIG
Övervägande molnigt
Övervägande molnigt
  Visa detaljer för London (Heathrow)
Avstånd från stationen: SV 1132kmLFPG - Paris (Charles de Gaulle)
Uppdaterad: 2022-06-26 10:30
 Vind från SSV
Vind: SSV 7 km/h
Temperatur: 17°C
Daggpunkt: 9°C
Luftfuktighet: 59%
Barometer: 1016 hPa
Moln: Övervägande molnigt
Sikt: 10 km
Molninformation: Några få moln 914 m
Övervägande molnigt 2012 m
Övervägande molnigt 7010 m
2022/06/26 08:30 LFPG 260830Z 20004KT 160V300 9999 FEW030 BKN066 BKN230 17/09 Q1016 NOSIG
Övervägande molnigt
Övervägande molnigt
  Visa detaljer för Paris (Charles de Gaulle)
Avstånd från stationen: SSV 1142kmLSZH - Zürich Airport
Uppdaterad: 2022-06-26 10:20
 Vind från N
Vind: N 7 km/h
Temperatur: 21°C
Daggpunkt: 16°C
Luftfuktighet: 73%
Barometer: 1015 hPa
Summering: Klart
Sikt: mer än 10 km
2022/06/26 08:20 LSZH 260820Z 01004KT 330V050 CAVOK 21/16 Q1015 NOSIG
Klart
Klart
  Visa detaljer för Zürich Airport
Avstånd från stationen: S 1749kmLIRF - Rome Airport (Fiumicino - Leonardo da Vinci)
Uppdaterad: 2022-06-26 10:20
 Vind från SO
Vind: SO 9 km/h
Temperatur: 31°C
Värmeindex: 32°C
Daggpunkt: 17°C
Luftfuktighet: 43%
Barometer: 1014 hPa
Summering: Klart
Sikt: mer än 10 km
2022/06/26 08:20 LIRF 260820Z 14005KT 080V190 CAVOK 31/17 Q1014 NOSIG
Klart
Klart
  Visa detaljer för Rome Airport (Fiumicino - Leonardo da Vinci)
Avstånd från stationen: SO 2679kmLTAI - Antalya
Uppdaterad: 2022-06-26 10:20
 Vind från N
Vind: N 22 km/h
Temperatur: 33°C
Daggpunkt: 10°C
Luftfuktighet: 24%
Barometer: 1008 hPa
Moln: Några få moln
Sikt: 10 km
Molninformation: Några få moln 914 m
2022/06/26 08:20 LTAI 260820Z 36012KT 310V030 9999 FEW030 33/10 Q1008 NOSIG
Några få moln
Några få moln
  Visa detaljer för Antalya
Avstånd från stationen: VSV 6074kmKJFK - New Your (JFK)
Uppdaterad: 2022-06-26 09:51
 Vind från S
Vind: S 9 km/h
Temperatur: 20°C
Daggpunkt: 18°C
Luftfuktighet: 88%
Barometer: 1019.6 hPa
Moln: Några få moln
Sikt: 16 km
Molninformation: Några få moln 7620 m
2022/06/26 07:51 KJFK 260751Z 19005KT 10SM FEW250 20/18 A3011 RMK AO2 SLP195 T02000183 $
Några få moln
Några få moln
  Visa detaljer för New Your (JFK)
Avstånd från stationen: VSV 8848kmKLAX - Los Angeles International Airport
Uppdaterad: 2022-06-26 09:53
 Vind från VSV
Vind: VSV 11 km/h
Temperatur: 17°C
Daggpunkt: 16°C
Luftfuktighet: 94%
Barometer: 1014.2 hPa
Summering: Dimmigt
Moln: Övervägande molnigt
Sikt: 10 km
Molninformation: Delvis molnigt 213 m
Övervägande molnigt 274 m
2022/06/26 07:53 KLAX 260753Z 24006KT 6SM BR SCT007 BKN009 17/16 A2995 RMK AO2 SLP140 VIS W 2 T01720156 402220161
Dimmigt, Övervägande molnigt
Dimmigt
Övervägande molnigt
  Visa detaljer för Los Angeles International Airport
Avstånd från stationen: SO 4968kmOMDB - Dubai International Airport
Uppdaterad: 2022-06-26 10:00
 Vind från V
Vind: V 9 km/h
Temperatur: 40°C
Daggpunkt: 22°C
Luftfuktighet: 35%
Barometer: 996 hPa
Summering: Klart
Sikt: mer än 10 km
2022/06/26 08:00 OMDB 260800Z 26005KT 220V310 CAVOK 40/22 Q0996 NOSIG
Klart
Klart
  Visa detaljer för Dubai International Airport
Avstånd från stationen: OSO 8570kmRJTT - Tokyo International Airport
Uppdaterad: 2022-06-26 10:30
 Vind från SSV
Vind: SSV 26 km/h
Moln: Några få moln
Sikt: 10 km
Molninformation: Några få moln 914 m
2022/06/26 08:30 RJTT 260830Z 20014KT 9999 FEW030 SCT/// 31/21 Q1011 NOSIG
Några få moln
Några få moln
  Visa detaljer för Tokyo International Airport
Avstånd från stationen: OSO 7125kmZBAA - Peking (Beijing Capital)
Uppdaterad: 2022-06-26 10:30
 Vind från ONO
Vind: ONO 11 km/h
Temperatur: 32°C
Värmeindex: 34°C
Daggpunkt: 20°C
Luftfuktighet: 49%
Barometer: 1000 hPa
Summering: Klart
Sikt: mer än 10 km
2022/06/26 08:30 ZBAA 260830Z 07003MPS 030V140 CAVOK 32/20 Q1000 NOSIG
Klart
Klart
  Visa detaljer för Peking (Beijing Capital)
VÄDER KURIOSA -  Weather TermsSquall line - A line of thunderstorms or squalls which may extend over several hundred miles.